Time;durP1;ratioP1;P1;durP2;ratioP2;P2;SDS_P1;SDS_P2;PMS_P1;PMS_P2;Temp;Humidity;BMP_temperature;BMP_pressure;BME280_temperature;BME280_humidity;BME280_pressure;Samples;Min_cycle;Max_cycle;Signal;HPM_P1;HPM_P2
2023/03/07 00:01:22;;;;;;;26.17;13.47;;;;;;;-141.59;100.00;61776.25;5097746;27;20211;-81
2023/03/07 00:03:51;;;;;;;23.30;13.23;;;;;;;-141.59;100.00;61776.25;5097267;28;20234;-81
2023/03/07 00:06:18;;;;;;;24.40;12.63;;;;;;;-141.59;100.00;61776.25;5084263;28;20196;-81
2023/03/07 00:08:45;;;;;;;22.67;14.00;;;;;;;-141.59;100.00;61776.25;5103145;28;20265;-81
2023/03/07 00:11:12;;;;;;;22.47;13.27;;;;;;;-141.59;100.00;61776.25;5098647;28;20196;-81
2023/03/07 00:13:39;;;;;;;29.27;15.67;;;;;;;-141.59;100.00;61776.25;5095232;28;20230;-81
2023/03/07 00:16:10;;;;;;;29.90;16.07;;;;;;;-141.59;100.00;61776.25;5084897;28;20200;-81
2023/03/07 00:18:37;;;;;;;27.80;14.60;;;;;;;-141.59;100.00;61776.25;5090529;28;20204;-82
2023/03/07 00:21:08;;;;;;;26.27;12.93;;;;;;;-141.59;100.00;61776.25;5079060;28;20204;-81
2023/03/07 00:23:36;;;;;;;25.20;13.50;;;;;;;-141.59;100.00;61776.25;5074779;28;20251;-81
2023/03/07 00:26:05;;;;;;;26.13;13.63;;;;;;;-141.59;100.00;61776.25;5094838;28;20201;-81
2023/03/07 00:28:32;;;;;;;22.83;13.20;;;;;;;-141.59;100.00;61776.25;5087036;28;20220;-81
2023/03/07 00:31:01;;;;;;;20.70;12.30;;;;;;;-141.59;100.00;61776.25;5076252;28;20231;-81
2023/03/07 00:33:28;;;;;;;22.70;12.53;;;;;;;-141.59;100.00;61776.25;5084271;28;20231;-81
2023/03/07 00:35:57;;;;;;;21.10;12.03;;;;;;;-141.59;100.00;61776.25;5085128;28;20207;-81
2023/03/07 00:38:26;;;;;;;22.53;12.93;;;;;;;-141.59;100.00;61776.25;5086188;28;20205;-81
2023/03/07 00:41:00;;;;;;;21.73;11.93;;;;;;;-141.59;100.00;61776.25;5096096;28;20224;-81
2023/03/07 00:43:27;;;;;;;24.23;14.43;;;;;;;-141.59;100.00;61776.25;5086097;28;20216;-81
2023/03/07 00:45:54;;;;;;;29.60;16.30;;;;;;;-141.59;100.00;61776.25;5086679;28;20287;-80
2023/03/07 00:48:22;;;;;;;25.60;14.80;;;;;;;-141.59;100.00;61776.25;5090743;28;20235;-81
2023/03/07 00:50:50;;;;;;;25.93;14.10;;;;;;;-141.59;100.00;61776.25;5083426;28;20207;-81
2023/03/07 00:53:18;;;;;;;27.37;15.83;;;;;;;-141.59;100.00;61776.25;5072929;28;20208;-81
2023/03/07 00:55:56;;;;;;;27.37;14.77;;;;;;;-141.59;100.00;61776.25;5074479;28;20212;-81
2023/03/07 00:58:24;;;;;;;26.47;13.37;;;;;;;-141.59;100.00;61776.25;5092901;28;20206;-81
2023/03/07 01:00:51;;;;;;;25.53;13.57;;;;;;;-141.59;100.00;61776.25;5088940;28;20224;-81
2023/03/07 01:03:19;;;;;;;23.47;12.87;;;;;;;-141.59;100.00;61776.25;5085552;28;20295;-81
2023/03/07 01:05:48;;;;;;;22.93;12.87;;;;;;;-141.59;100.00;61776.25;5091533;28;20196;-81
2023/03/07 01:08:15;;;;;;;28.23;14.27;;;;;;;-141.59;100.00;61776.25;5084744;28;20208;-81
2023/03/07 01:10:43;;;;;;;27.53;14.80;;;;;;;-141.59;100.00;61776.25;5087673;28;20208;-81
2023/03/07 01:13:12;;;;;;;30.00;14.97;;;;;;;-141.59;100.00;61776.25;5082529;28;20205;-80
2023/03/07 01:15:39;;;;;;;24.87;13.80;;;;;;;-141.59;100.00;61776.25;5100679;28;20593;-81
2023/03/07 01:18:07;;;;;;;21.50;12.90;;;;;;;-141.59;100.00;61776.25;5091252;28;20206;-81
2023/03/07 01:20:36;;;;;;;26.77;14.53;;;;;;;-141.59;100.00;61776.25;5082213;28;20193;-81
2023/03/07 01:23:05;;;;;;;24.27;13.73;;;;;;;-141.59;100.00;61776.25;5092331;27;20294;-81
2023/03/07 01:25:38;;;;;;;24.60;13.83;;;;;;;-141.59;100.00;61776.25;5093469;28;20230;-81
2023/03/07 01:28:06;;;;;;;24.90;14.37;;;;;;;-141.59;100.00;61776.25;5092238;28;20188;-81
2023/03/07 01:30:35;;;;;;;31.87;16.57;;;;;;;-141.59;100.00;61776.25;5082441;28;20216;-81
2023/03/07 01:33:02;;;;;;;30.43;14.63;;;;;;;-141.59;100.00;61776.25;5090323;28;20207;-81
2023/03/07 01:35:30;;;;;;;31.80;15.70;;;;;;;-141.59;100.00;61776.25;5083077;28;20197;-81
2023/03/07 01:37:58;;;;;;;34.67;17.13;;;;;;;-141.59;100.00;61776.25;5084952;28;20266;-81
2023/03/07 01:40:25;;;;;;;33.57;16.30;;;;;;;-141.59;100.00;61776.25;5106005;28;20254;-81
2023/03/07 01:42:53;;;;;;;30.67;15.90;;;;;;;-141.59;100.00;61776.25;5090663;28;20211;-81
2023/03/07 01:46:00;;;;;;;29.40;15.57;;;;;;;-141.59;100.00;61776.25;5093291;28;20195;-81
2023/03/07 01:48:29;;;;;;;23.50;14.03;;;;;;;-141.59;100.00;61776.25;5084441;28;20238;-81
2023/03/07 01:50:56;;;;;;;26.13;15.20;;;;;;;-141.59;100.00;61776.25;5080617;28;20288;-81
2023/03/07 01:53:23;;;;;;;30.80;15.37;;;;;;;-141.59;100.00;61776.25;5096120;28;20201;-81
2023/03/07 01:55:50;;;;;;;34.97;16.50;;;;;;;-141.59;100.00;61776.25;5082027;28;20196;-81
2023/03/07 01:58:19;;;;;;;27.03;15.20;;;;;;;-141.59;100.00;61776.25;5076941;28;20213;-81
2023/03/07 02:00:46;;;;;;;30.13;16.40;;;;;;;-141.59;100.00;61776.25;5105763;27;20201;-81
2023/03/07 02:03:22;;;;;;;31.33;16.23;;;;;;;-141.59;100.00;61776.25;5094904;28;20212;-81
2023/03/07 02:05:55;;;;;;;28.37;14.60;;;;;;;-141.59;100.00;61776.25;5096357;27;20218;-81
2023/03/07 02:08:27;;;;;;;27.67;15.20;;;;;;;-141.59;100.00;61776.25;5088870;28;20304;-81
2023/03/07 02:10:55;;;;;;;26.00;14.97;;;;;;;-141.59;100.00;61776.25;5082084;28;20225;-81
2023/03/07 02:13:22;;;;;;;26.97;14.00;;;;;;;-141.59;100.00;61776.25;5075311;28;20235;-81
2023/03/07 02:15:50;;;;;;;26.63;14.60;;;;;;;-141.59;100.00;61776.25;5079556;28;20204;-80
2023/03/07 02:18:20;;;;;;;22.27;12.63;;;;;;;-141.59;100.00;61776.25;5095048;28;20277;-81
2023/03/07 02:20:55;;;;;;;23.00;13.33;;;;;;;-141.59;100.00;61776.25;5093338;28;20197;-81
2023/03/07 02:23:31;;;;;;;25.33;13.43;;;;;;;-141.59;100.00;61776.25;5080170;28;20205;-81
2023/03/07 02:26:07;;;;;;;26.90;14.27;;;;;;;-141.59;100.00;61776.25;5084000;28;20211;-81
2023/03/07 02:28:36;;;;;;;26.80;13.50;;;;;;;-141.59;100.00;61776.25;5088920;28;20289;-80
2023/03/07 02:31:06;;;;;;;22.97;12.80;;;;;;;-141.59;100.00;61776.25;5086546;28;20205;-81
2023/03/07 02:33:35;;;;;;;25.73;13.83;;;;;;;-141.59;100.00;61776.25;5084502;28;20271;-81
2023/03/07 02:36:09;;;;;;;25.73;14.47;;;;;;;-141.59;100.00;61776.25;5087212;28;20204;-81
2023/03/07 02:38:44;;;;;;;22.50;13.77;;;;;;;-141.59;100.00;61776.25;5082390;28;20200;-81
2023/03/07 02:41:13;;;;;;;25.77;14.07;;;;;;;-141.59;100.00;61776.25;5092358;28;20211;-81
2023/03/07 02:43:41;;;;;;;23.93;13.43;;;;;;;-141.59;100.00;61776.25;5105350;27;20206;-81
2023/03/07 02:46:10;;;;;;;23.90;13.40;;;;;;;-141.59;100.00;61776.25;5078788;28;20250;-81
2023/03/07 02:48:37;;;;;;;21.73;12.50;;;;;;;-141.59;100.00;61776.25;5083106;28;20235;-81
2023/03/07 02:51:05;;;;;;;23.23;13.77;;;;;;;-141.59;100.00;61776.25;5100272;27;20208;-81
2023/03/07 02:53:32;;;;;;;23.07;12.83;;;;;;;-141.59;100.00;61776.25;5078303;28;20188;-81
2023/03/07 02:55:59;;;;;;;23.70;13.10;;;;;;;-141.59;100.00;61776.25;5088616;28;20201;-81
2023/03/07 02:58:27;;;;;;;20.33;11.80;;;;;;;-141.59;100.00;61776.25;5089981;28;20196;-81
2023/03/07 03:00:55;;;;;;;21.53;11.63;;;;;;;-141.59;100.00;61776.25;5083208;27;20201;-81
2023/03/07 03:03:22;;;;;;;20.40;12.00;;;;;;;-141.59;100.00;61776.25;5084266;28;20216;-81
2023/03/07 03:05:49;;;;;;;23.43;10.47;;;;;;;-141.59;100.00;61776.25;5089985;28;20204;-81
2023/03/07 03:08:16;;;;;;;20.30;10.80;;;;;;;-141.59;100.00;61776.25;5080203;28;20386;-81
2023/03/07 03:10:43;;;;;;;23.30;12.93;;;;;;;-141.59;100.00;61776.25;5087008;28;20216;-81
2023/03/07 03:13:10;;;;;;;23.90;13.27;;;;;;;-141.59;100.00;61776.25;5078029;28;20208;-81
2023/03/07 03:15:38;;;;;;;26.67;14.87;;;;;;;-141.59;100.00;61776.25;5080203;28;20193;-81
2023/03/07 03:18:07;;;;;;;25.30;14.53;;;;;;;-141.59;100.00;61776.25;5085494;28;20212;-81
2023/03/07 03:20:33;;;;;;;26.97;14.20;;;;;;;-141.59;100.00;61776.25;5084374;27;20211;-81
2023/03/07 03:23:01;;;;;;;24.77;13.83;;;;;;;-141.59;100.00;61776.25;5111533;27;20272;-81
2023/03/07 03:25:28;;;;;;;25.03;13.47;;;;;;;-141.59;100.00;61776.25;5084842;28;20211;-81
2023/03/07 03:27:55;;;;;;;25.13;14.70;;;;;;;-141.59;100.00;61776.25;5088176;28;20249;-81
2023/03/07 03:30:25;;;;;;;24.17;12.83;;;;;;;-141.59;100.00;61776.25;5085496;28;20225;-81
2023/03/07 03:32:52;;;;;;;24.07;12.60;;;;;;;-141.59;100.00;61776.25;5078683;28;20204;-82
2023/03/07 03:35:21;;;;;;;26.43;14.10;;;;;;;-141.59;100.00;61776.25;5089893;28;20283;-81
2023/03/07 03:37:48;;;;;;;23.57;13.67;;;;;;;-141.59;100.00;61776.25;5073072;28;20200;-81
2023/03/07 03:40:16;;;;;;;20.57;12.47;;;;;;;-141.59;100.00;61776.25;5078659;28;20193;-81
2023/03/07 03:42:45;;;;;;;24.67;12.80;;;;;;;-141.59;100.00;61776.25;5096741;27;20249;-81
2023/03/07 03:45:15;;;;;;;21.83;12.60;;;;;;;-141.59;100.00;61776.25;5098412;28;20289;-82
2023/03/07 03:47:42;;;;;;;24.27;12.60;;;;;;;-141.59;100.00;61776.25;5083194;28;20392;-80
2023/03/07 03:50:11;;;;;;;24.17;13.13;;;;;;;-141.59;100.00;61776.25;5091348;27;20212;-81
2023/03/07 03:52:43;;;;;;;28.67;14.60;;;;;;;-141.59;100.00;61776.25;5069265;28;20229;-81
2023/03/07 03:55:11;;;;;;;26.53;13.83;;;;;;;-141.59;100.00;61776.25;5081793;28;20287;-81
2023/03/07 03:57:38;;;;;;;23.93;13.53;;;;;;;-141.59;100.00;61776.25;5083459;28;20204;-81
2023/03/07 04:00:09;;;;;;;21.53;12.43;;;;;;;-141.59;100.00;61776.25;5074682;28;20204;-81
2023/03/07 04:02:39;;;;;;;20.10;11.30;;;;;;;-141.59;100.00;61776.25;5100890;28;20289;-81
2023/03/07 04:05:09;;;;;;;20.73;11.67;;;;;;;-141.59;100.00;61776.25;5088108;28;20208;-81
2023/03/07 04:07:36;;;;;;;20.67;11.57;;;;;;;-141.59;100.00;61776.25;5077518;28;20236;-81
2023/03/07 04:10:06;;;;;;;24.10;11.60;;;;;;;-141.59;100.00;61776.25;5086496;28;20220;-81
2023/03/07 04:12:34;;;;;;;23.03;12.47;;;;;;;-141.59;100.00;61776.25;5074074;28;20199;-82
2023/03/07 04:15:01;;;;;;;24.23;12.63;;;;;;;-141.59;100.00;61776.25;5090432;28;20227;-81
2023/03/07 04:17:28;;;;;;;23.27;12.43;;;;;;;-141.59;100.00;61776.25;5100334;28;20223;-82
2023/03/07 04:19:55;;;;;;;24.67;12.00;;;;;;;-141.59;100.00;61776.25;5077943;28;20291;-81
2023/03/07 04:22:23;;;;;;;24.43;12.83;;;;;;;-141.59;100.00;61776.25;5083753;28;20203;-81
2023/03/07 04:24:49;;;;;;;23.77;12.00;;;;;;;-141.59;100.00;61776.25;5084781;28;20200;-81
2023/03/07 04:27:18;;;;;;;18.47;11.60;;;;;;;-141.59;100.00;61776.25;5084485;28;20212;-82
2023/03/07 04:29:45;;;;;;;20.93;12.17;;;;;;;-141.59;100.00;61776.25;5074357;28;20300;-82
2023/03/07 04:32:17;;;;;;;22.50;12.47;;;;;;;-141.59;100.00;61776.25;5088834;28;20217;-82
2023/03/07 04:34:44;;;;;;;25.47;13.80;;;;;;;-141.59;100.00;61776.25;5090912;28;20227;-81
2023/03/07 04:37:11;;;;;;;22.43;12.60;;;;;;;-141.59;100.00;61776.25;5083532;28;20218;-81
2023/03/07 04:39:39;;;;;;;23.17;12.80;;;;;;;-141.59;100.00;61776.25;5099664;28;20230;-80
2023/03/07 04:42:08;;;;;;;25.00;12.83;;;;;;;-141.59;100.00;61776.25;5089979;28;20196;-82
2023/03/07 04:44:38;;;;;;;24.60;13.13;;;;;;;-141.59;100.00;61776.25;5080633;28;20208;-81
2023/03/07 04:47:06;;;;;;;20.60;12.07;;;;;;;-141.59;100.00;61776.25;5095217;28;20262;-81
2023/03/07 04:49:35;;;;;;;21.77;12.37;;;;;;;-141.59;100.00;61776.25;5089693;28;20208;-82
2023/03/07 04:52:05;;;;;;;23.07;12.40;;;;;;;-141.59;100.00;61776.25;5082726;28;20215;-82
2023/03/07 04:54:33;;;;;;;19.30;11.10;;;;;;;-141.59;100.00;61776.25;5096157;28;20216;-81
2023/03/07 04:57:02;;;;;;;21.73;11.57;;;;;;;-141.59;100.00;61776.25;5077220;28;20213;-82
2023/03/07 04:59:29;;;;;;;19.60;10.70;;;;;;;-141.59;100.00;61776.25;5091118;28;20196;-82
2023/03/07 05:01:58;;;;;;;18.70;11.33;;;;;;;-141.59;100.00;61776.25;5096398;27;20222;-82
2023/03/07 05:04:25;;;;;;;21.70;11.10;;;;;;;-141.59;100.00;61776.25;5085577;28;20235;-82
2023/03/07 05:06:53;;;;;;;24.93;12.13;;;;;;;-141.59;100.00;61776.25;5093817;28;20212;-82
2023/03/07 05:09:19;;;;;;;22.63;13.87;;;;;;;-141.59;100.00;61776.25;5079745;28;20300;-81
2023/03/07 05:11:47;;;;;;;23.97;13.40;;;;;;;-141.59;100.00;61776.25;5086742;28;20228;-81
2023/03/07 05:14:14;;;;;;;24.57;13.37;;;;;;;-141.59;100.00;61776.25;5084682;28;20216;-82
2023/03/07 05:16:41;;;;;;;24.70;14.50;;;;;;;-141.59;100.00;61776.25;5087905;28;20216;-81
2023/03/07 05:19:12;;;;;;;23.67;13.23;;;;;;;-141.59;100.00;61776.25;5088213;28;20247;-82
2023/03/07 05:21:40;;;;;;;24.10;12.27;;;;;;;-141.59;100.00;61776.25;5083307;28;20200;-82
2023/03/07 05:24:08;;;;;;;26.00;13.37;;;;;;;-141.59;100.00;61776.25;5086428;27;20230;-82
2023/03/07 05:26:35;;;;;;;24.03;12.47;;;;;;;-141.59;100.00;61776.25;5085329;28;20201;-83
2023/03/07 05:29:03;;;;;;;22.80;11.83;;;;;;;-141.59;100.00;61776.25;5088641;28;20196;-82
2023/03/07 05:31:31;;;;;;;20.00;11.33;;;;;;;-141.59;100.00;61776.25;5084943;28;20277;-82
2023/03/07 05:33:58;;;;;;;22.73;12.30;;;;;;;-141.59;100.00;61776.25;5090594;28;20197;-82
2023/03/07 05:36:26;;;;;;;20.57;12.73;;;;;;;-141.59;100.00;61776.25;5084835;28;20201;-82
2023/03/07 05:38:55;;;;;;;22.33;13.30;;;;;;;-141.59;100.00;61776.25;5088193;28;20204;-82
2023/03/07 05:41:23;;;;;;;21.33;12.33;;;;;;;-141.59;100.00;61776.25;5083240;28;20272;-82
2023/03/07 05:43:50;;;;;;;22.60;11.70;;;;;;;-141.59;100.00;61776.25;5081712;28;20221;-82
2023/03/07 05:46:17;;;;;;;24.13;11.47;;;;;;;-141.59;100.00;61776.25;5095687;28;20213;-82
2023/03/07 05:48:44;;;;;;;27.20;12.87;;;;;;;-141.59;100.00;61776.25;5089475;28;20243;-82
2023/03/07 05:51:11;;;;;;;19.83;11.40;;;;;;;-141.59;100.00;61776.25;5089148;28;20223;-82
2023/03/07 05:53:40;;;;;;;24.80;11.33;;;;;;;-141.59;100.00;61776.25;5084899;28;20210;-82
2023/03/07 05:56:08;;;;;;;23.70;11.67;;;;;;;-141.59;100.00;61776.25;5078645;28;20197;-82
2023/03/07 05:58:36;;;;;;;21.60;11.57;;;;;;;-141.59;100.00;61776.25;5084625;28;20206;-82
2023/03/07 06:01:04;;;;;;;21.90;12.37;;;;;;;-141.59;100.00;61776.25;5087321;28;20230;-83
2023/03/07 06:03:32;;;;;;;20.17;10.80;;;;;;;-141.59;100.00;61776.25;5076523;28;20222;-82
2023/03/07 06:05:59;;;;;;;20.10;11.37;;;;;;;-141.59;100.00;61776.25;5086288;28;20205;-82
2023/03/07 06:08:26;;;;;;;21.10;11.30;;;;;;;-141.59;100.00;61776.25;5104762;27;20216;-82
2023/03/07 06:10:55;;;;;;;21.83;10.27;;;;;;;-141.59;100.00;61776.25;5108074;27;20257;-82
2023/03/07 06:13:24;;;;;;;17.97;10.30;;;;;;;-141.59;100.00;61776.25;5101435;27;20207;-82
2023/03/07 06:15:52;;;;;;;21.73;11.57;;;;;;;-141.59;100.00;61776.25;5081006;28;20232;-83
2023/03/07 06:18:21;;;;;;;20.17;11.67;;;;;;;-141.59;100.00;61776.25;5080513;28;20197;-82
2023/03/07 06:20:55;;;;;;;21.37;12.70;;;;;;;-141.59;100.00;61776.25;5106536;27;20207;-82
2023/03/07 06:23:22;;;;;;;19.43;11.40;;;;;;;-141.59;100.00;61776.25;5081423;28;20204;-82
2023/03/07 06:25:49;;;;;;;22.10;12.43;;;;;;;-141.59;100.00;61776.25;5080475;28;20208;-82
2023/03/07 06:28:19;;;;;;;19.40;11.57;;;;;;;-141.59;100.00;61776.25;5085792;28;20447;-82
2023/03/07 06:30:46;;;;;;;22.20;10.90;;;;;;;-141.59;100.00;61776.25;5091234;28;20232;-81
2023/03/07 06:33:13;;;;;;;18.17;10.23;;;;;;;-141.59;100.00;61776.25;5078499;28;20204;-81
2023/03/07 06:35:43;;;;;;;19.03;10.93;;;;;;;-141.59;100.00;61776.25;5084090;28;20230;-81
2023/03/07 06:38:15;;;;;;;18.87;10.30;;;;;;;-141.59;100.00;61776.25;5085867;28;20209;-81
2023/03/07 06:40:44;;;;;;;21.67;11.23;;;;;;;-141.59;100.00;61776.25;5078601;28;20201;-81
2023/03/07 06:43:13;;;;;;;20.70;10.83;;;;;;;-141.59;100.00;61776.25;5085198;28;20246;-81
2023/03/07 06:45:41;;;;;;;22.40;11.73;;;;;;;-141.59;100.00;61776.25;5082278;28;20204;-81
2023/03/07 06:48:09;;;;;;;20.47;11.37;;;;;;;-141.59;100.00;61776.25;5066251;28;20233;-81
2023/03/07 06:50:38;;;;;;;21.53;11.50;;;;;;;-141.59;100.00;61776.25;5086714;28;20224;-81
2023/03/07 06:53:05;;;;;;;22.13;11.50;;;;;;;-141.59;100.00;61776.25;5071841;28;20193;-81
2023/03/07 06:55:32;;;;;;;19.27;12.40;;;;;;;-141.59;100.00;61776.25;5077939;28;20243;-81
2023/03/07 06:57:59;;;;;;;20.60;11.97;;;;;;;-141.59;100.00;61776.25;5087900;28;20203;-81
2023/03/07 07:00:27;;;;;;;23.70;13.13;;;;;;;-141.59;100.00;61776.25;5085734;28;20205;-81
2023/03/07 07:02:56;;;;;;;20.10;11.73;;;;;;;-141.59;100.00;61776.25;5073783;28;20197;-81
2023/03/07 07:05:23;;;;;;;20.67;12.30;;;;;;;-141.59;100.00;61776.25;5067432;28;20224;-81
2023/03/07 07:07:50;;;;;;;20.50;12.07;;;;;;;-141.59;100.00;61776.25;5061862;28;21398;-81
2023/03/07 07:10:17;;;;;;;23.17;12.03;;;;;;;-141.59;100.00;61776.25;5072682;28;20239;-81
2023/03/07 07:12:45;;;;;;;24.10;12.17;;;;;;;-141.59;100.00;61776.25;5064462;28;20201;-81
2023/03/07 07:15:12;;;;;;;19.93;11.37;;;;;;;-141.59;100.00;61776.25;5067912;28;20229;-81
2023/03/07 07:17:39;;;;;;;23.37;11.87;;;;;;;-141.59;100.00;61776.25;5086704;28;20208;-81
2023/03/07 07:20:11;;;;;;;22.63;11.57;;;;;;;-141.59;100.00;61776.25;5079473;28;20206;-81
2023/03/07 07:22:40;;;;;;;31.23;16.67;;;;;;;-141.59;100.00;61776.25;5063498;28;20201;-81
2023/03/07 07:25:10;;;;;;;21.10;12.20;;;;;;;-141.59;100.00;61776.25;5074523;28;20192;-81
2023/03/07 07:27:37;;;;;;;20.47;11.40;;;;;;;-141.59;100.00;61776.25;5069411;28;20224;-81
2023/03/07 07:30:06;;;;;;;22.30;12.37;;;;;;;-141.59;100.00;61776.25;5063835;28;20217;-81
2023/03/07 07:32:34;;;;;;;23.63;12.53;;;;;;;-141.59;100.00;61776.25;5067571;28;20221;-81
2023/03/07 07:35:02;;;;;;;25.33;13.17;;;;;;;-141.59;100.00;61776.25;5076763;28;20217;-81
2023/03/07 07:37:32;;;;;;;22.30;11.93;;;;;;;-141.59;100.00;61776.25;5066251;28;20216;-81
2023/03/07 07:39:59;;;;;;;21.13;11.83;;;;;;;-141.59;100.00;61776.25;5065991;28;20227;-83
2023/03/07 07:42:26;;;;;;;23.93;12.07;;;;;;;-141.59;100.00;61776.25;5088634;28;20196;-81
2023/03/07 07:45:08;;;;;;;23.83;12.60;;;;;;;-141.59;100.00;61776.25;5060924;28;20294;-81
2023/03/07 07:47:35;;;;;;;24.27;13.50;;;;;;;-141.59;100.00;61776.25;5068764;28;20293;-81
2023/03/07 07:50:02;;;;;;;24.43;13.53;;;;;;;-141.59;100.00;61776.25;5080513;28;20287;-81
2023/03/07 07:52:34;;;;;;;25.43;13.17;;;;;;;-141.59;100.00;61776.25;5081583;28;20221;-82
2023/03/07 07:55:02;;;;;;;27.60;13.80;;;;;;;-141.59;100.00;61776.25;5077859;28;20192;-82
2023/03/07 07:57:29;;;;;;;23.73;12.57;;;;;;;-141.59;100.00;61776.25;5078529;27;20196;-82
2023/03/07 07:59:58;;;;;;;26.20;13.63;;;;;;;-141.59;100.00;61776.25;5079936;28;20287;-81
2023/03/07 08:02:25;;;;;;;26.13;13.40;;;;;;;-141.59;100.00;61776.25;5075122;28;20208;-81
2023/03/07 08:04:52;;;;;;;25.87;14.40;;;;;;;-141.59;100.00;61776.25;5080462;28;20200;-81
2023/03/07 08:07:19;;;;;;;23.23;14.50;;;;;;;-141.59;100.00;61776.25;5088012;28;20204;-81
2023/03/07 08:09:48;;;;;;;27.17;14.30;;;;;;;-141.59;100.00;61776.25;5086297;28;20226;-81
2023/03/07 08:12:15;;;;;;;28.93;14.97;;;;;;;-141.59;100.00;61776.25;5074827;28;20274;-81
2023/03/07 08:14:42;;;;;;;27.17;15.27;;;;;;;-141.59;100.00;61776.25;5083706;28;20242;-82
2023/03/07 08:17:09;;;;;;;29.90;15.10;;;;;;;-141.59;100.00;61776.25;5081438;28;20204;-81
2023/03/07 08:19:36;;;;;;;25.93;14.53;;;;;;;-141.59;100.00;61776.25;5098526;28;20207;-81
2023/03/07 08:22:03;;;;;;;32.33;17.93;;;;;;;-141.59;100.00;61776.25;5088564;28;20193;-81
2023/03/07 08:24:31;;;;;;;30.63;17.50;;;;;;;-141.59;100.00;61776.25;5096738;28;20286;-81
2023/03/07 08:27:00;;;;;;;32.27;18.37;;;;;;;-141.59;100.00;61776.25;5079937;28;20204;-81
2023/03/07 08:29:27;;;;;;;26.80;15.47;;;;;;;-141.59;100.00;61776.25;5080223;28;20261;-80
2023/03/07 08:31:54;;;;;;;27.53;15.27;;;;;;;-141.59;100.00;61776.25;5083269;28;20215;-82
2023/03/07 08:34:21;;;;;;;30.10;15.10;;;;;;;-141.59;100.00;61776.25;5078662;28;20250;-81
2023/03/07 08:36:48;;;;;;;20.30;11.97;;;;;;;-141.59;100.00;61776.25;5082081;28;20201;-81
2023/03/07 08:39:15;;;;;;;19.77;11.10;;;;;;;-141.59;100.00;61776.25;5088700;28;20308;-82
2023/03/07 08:41:42;;;;;;;23.33;11.93;;;;;;;-141.59;100.00;61776.25;5084056;28;20208;-81
2023/03/07 08:44:11;;;;;;;18.20;11.10;;;;;;;-141.59;100.00;61776.25;5087780;28;20200;-81
2023/03/07 08:46:37;;;;;;;19.70;10.57;;;;;;;-141.59;100.00;61776.25;5079437;28;21469;-82
2023/03/07 08:49:05;;;;;;;19.20;11.70;;;;;;;-141.59;100.00;61776.25;5071614;28;20309;-82
2023/03/07 08:51:33;;;;;;;19.00;10.93;;;;;;;-141.59;100.00;61776.25;5089524;28;20220;-81
2023/03/07 08:54:00;;;;;;;20.93;12.00;;;;;;;-141.59;100.00;61776.25;5080203;28;20201;-82
2023/03/07 08:56:27;;;;;;;20.53;11.33;;;;;;;-141.59;100.00;61776.25;5084261;28;20204;-81
2023/03/07 08:58:55;;;;;;;18.63;11.13;;;;;;;-141.59;100.00;61776.25;5087469;28;20208;-81
2023/03/07 09:01:23;;;;;;;18.37;11.07;;;;;;;-141.59;100.00;61776.25;5087115;28;20196;-81
2023/03/07 09:03:50;;;;;;;20.90;11.70;;;;;;;-141.59;100.00;61776.25;5088963;28;20276;-81
2023/03/07 09:06:19;;;;;;;20.87;11.57;;;;;;;-141.59;100.00;61776.25;5071350;28;20216;-82
2023/03/07 09:08:47;;;;;;;18.97;11.37;;;;;;;-141.59;100.00;61776.25;5076460;28;20295;-82
2023/03/07 09:11:14;;;;;;;21.33;11.77;;;;;;;-141.59;100.00;61776.25;5072616;28;20224;-82
2023/03/07 09:13:41;;;;;;;20.17;11.50;;;;;;;-141.59;100.00;61776.25;5078688;28;20229;-82
2023/03/07 09:16:08;;;;;;;21.30;11.90;;;;;;;-141.59;100.00;61776.25;5078237;28;20208;-82
2023/03/07 09:18:37;;;;;;;18.83;11.20;;;;;;;-141.59;100.00;61776.25;5079957;28;20223;-81
2023/03/07 09:21:06;;;;;;;20.20;10.60;;;;;;;-141.59;100.00;61776.25;5078782;28;20204;-82
2023/03/07 09:23:33;;;;;;;21.13;11.70;;;;;;;-141.59;100.00;61776.25;5093378;28;20200;-82
2023/03/07 09:26:00;;;;;;;20.93;12.43;;;;;;;-141.59;100.00;61776.25;5075724;28;20200;-81
2023/03/07 09:28:28;;;;;;;20.70;11.43;;;;;;;-141.59;100.00;61776.25;5083112;28;20220;-82
2023/03/07 09:30:55;;;;;;;17.83;11.57;;;;;;;-141.59;100.00;61776.25;5087118;28;20196;-82
2023/03/07 09:33:22;;;;;;;19.00;11.33;;;;;;;-141.59;100.00;61776.25;5100021;28;20196;-81
2023/03/07 09:35:50;;;;;;;21.37;12.07;;;;;;;-141.59;100.00;61776.25;5091938;28;20208;-81
2023/03/07 09:38:17;;;;;;;19.50;10.87;;;;;;;-141.59;100.00;61776.25;5087341;28;20201;-82
2023/03/07 09:40:46;;;;;;;21.07;12.53;;;;;;;-141.59;100.00;61776.25;5112708;27;20196;-81
2023/03/07 09:43:18;;;;;;;18.67;11.40;;;;;;;-141.59;100.00;61776.25;5101701;27;20246;-82
2023/03/07 09:46:04;;;;;;;25.00;12.80;;;;;;;-141.59;100.00;61776.25;5075932;28;20200;-81
2023/03/07 09:48:54;;;;;;;18.17;10.83;;;;;;;-141.59;100.00;61776.25;5077952;28;20239;-82
2023/03/07 09:51:25;;;;;;;26.20;11.93;;;;;;;-141.59;100.00;61776.25;5091597;28;20335;-81
2023/03/07 09:53:58;;;;;;;17.13;11.00;;;;;;;-141.59;100.00;61776.25;5081978;27;20206;-81
2023/03/07 09:56:29;;;;;;;18.83;11.87;;;;;;;-141.59;100.00;61776.25;5084331;28;20205;-82
2023/03/07 09:59:03;;;;;;;18.63;11.13;;;;;;;-141.59;100.00;61776.25;5091904;28;20250;-82
2023/03/07 10:01:35;;;;;;;21.77;11.90;;;;;;;-141.59;100.00;61776.25;5077536;28;20278;-82
2023/03/07 10:04:05;;;;;;;21.77;12.27;;;;;;;-141.59;100.00;61776.25;5082891;28;20197;-82
2023/03/07 10:06:38;;;;;;;18.47;11.23;;;;;;;-141.59;100.00;61776.25;5089268;28;20207;-82
2023/03/07 10:09:12;;;;;;;19.50;11.23;;;;;;;-141.59;100.00;61776.25;5078771;28;20212;-82
2023/03/07 10:12:10;;;;;;;22.50;12.30;;;;;;;-141.59;100.00;61776.25;5095797;27;20295;-82
2023/03/07 10:14:58;;;;;;;21.67;12.30;;;;;;;-141.59;100.00;61776.25;5084390;28;20224;-81
2023/03/07 10:17:43;;;;;;;24.37;12.87;;;;;;;-141.59;100.00;61776.25;5084124;28;20298;-81
2023/03/07 10:20:22;;;;;;;22.50;11.97;;;;;;;-141.59;100.00;61776.25;5081484;28;20268;-82
2023/03/07 10:23:01;;;;;;;20.60;11.80;;;;;;;-141.59;100.00;61776.25;5096624;28;20270;-81
2023/03/07 10:25:32;;;;;;;23.17;12.53;;;;;;;-141.59;100.00;61776.25;5081053;28;20209;-81
2023/03/07 10:28:12;;;;;;;20.80;12.47;;;;;;;-141.59;100.00;61776.25;5085165;28;20196;-81
2023/03/07 10:30:39;;;;;;;19.10;11.93;;;;;;;-141.59;100.00;61776.25;5092182;28;20239;-81
2023/03/07 10:33:16;;;;;;;21.17;11.07;;;;;;;-141.59;100.00;61776.25;5079326;28;20219;-81
2023/03/07 10:35:44;;;;;;;20.57;12.00;;;;;;;-141.59;100.00;61776.25;5077073;28;20281;-82
2023/03/07 10:38:24;;;;;;;20.27;12.10;;;;;;;-141.59;100.00;61776.25;5089972;28;20204;-81
2023/03/07 10:40:56;;;;;;;19.10;10.97;;;;;;;-141.59;100.00;61776.25;5096732;28;20272;-81
2023/03/07 10:43:27;;;;;;;17.33;11.20;;;;;;;-141.59;100.00;61776.25;5080051;28;20200;-82
2023/03/07 10:45:59;;;;;;;22.57;11.97;;;;;;;-141.59;100.00;61776.25;5088959;28;20192;-82
2023/03/07 10:48:30;;;;;;;19.93;11.97;;;;;;;-141.59;100.00;61776.25;5094017;28;20289;-82
2023/03/07 10:51:03;;;;;;;20.00;11.60;;;;;;;-141.59;100.00;61776.25;5081813;28;20276;-82
2023/03/07 10:53:36;;;;;;;22.93;11.73;;;;;;;-141.59;100.00;61776.25;5087620;28;20229;-82
2023/03/07 10:56:11;;;;;;;19.13;11.10;;;;;;;-141.59;100.00;61776.25;5087187;28;20292;-81
2023/03/07 10:58:38;;;;;;;18.83;11.07;;;;;;;-141.59;100.00;61776.25;5075981;28;20303;-83
2023/03/07 11:01:20;;;;;;;21.43;12.40;;;;;;;-141.59;100.00;61776.25;5077960;28;20209;-81
2023/03/07 11:03:51;;;;;;;19.70;11.93;;;;;;;-141.59;100.00;61776.25;5097049;28;20196;-82